Lamott, Pennsylvania
Current Conditions -  °F | °C
As of 2:54 AM on Sunday 23 Nov 2014 (Local Time) from KPNE Reporting Station
Clear Clear  
Wind Chill: 41°   Ceiling: Unl
Heat Index: 41°   Visibility: 10mi
Dew Point: 22°   Wind: 3mph
Humidity: 47%   Direction: 190°S
Pressure: 30.22"   Gusts: NA
Location:  40.0732°N, 75.1248°W
Report Text: KPNE 230754Z AUTO 19003KT 10SM CLR 05/M06 A3022 RMK AO2 SLP233 T00501056 TSNO
Loading
Personal Weather Stations






























Interactive Weather Map New forecast layout! Learn more

10-Day Weather Forecast

Advertisements
Track Severe Weather on mobile